CheckWX is a tool to help pilots better visualize weather data.  It is not intended as a substitute for an official pre-flight weather briefing.

03:03:30 UTC

KFHR METAR
Friday Harbor Airport
Friday Harbor, Washington, USA
Current

1 hour ago

KFHR 170153Z AUTO 00000KT 10SM SCT038 BKN065 07/02 A3018 RMK AO2 SLP223 T00670017
Observed
Feb-17 @ 01:53 UTC
Visibility
10 SM
Flight Rules
VFR
Cloud Levels
  • Scattered at 3,800' AGL
  • Broken at 6,500' AGL
Temperature
C / 45°F
Dewpoint
C / 36°F
Humidity
71%
Altimeter
30.18" Hg
Pressure
1022.02 hPa
Previous

2 hours ago

KFHR 170053Z AUTO 00000KT 10SM BKN030 BKN040 07/02 A3017 RMK AO2 SLP218 T00720022
Observed
Feb-17 @ 00:53 UTC
Visibility
10 SM
Flight Rules
MVFR
Cloud Levels
  • Broken at 3,000' AGL
  • Broken at 4,000' AGL
Temperature
C / 45°F
Dewpoint
C / 36°F
Humidity
71%
Altimeter
30.17" Hg
Pressure
1021.72 hPa
Previous

3 hours ago

KFHR 162353Z AUTO 23010G14KT 10SM CLR 07/03 A3016 RMK AO2 SLP214 60000 T00720028 10083 20056 53000
Observed
Feb-16 @ 23:53 UTC
Wind
  • 230° at 10 KTS
  • Gusting to 14 KTS
Visibility
10 SM
Flight Rules
VFR
Cloud Levels
  • Clear skies
Temperature
C / 45°F
Dewpoint
C / 37°F
Humidity
76%
Altimeter
30.16" Hg
Pressure
1021.32 hPa